createdAt,value
2018-12-22T00:02:21.106Z,99950.86
2018-12-22T00:04:48.773Z,99960.04
2018-12-22T00:07:16.362Z,99961.12
2018-12-22T00:09:43.977Z,99972.70
2018-12-22T00:12:11.549Z,99962.99
2018-12-22T00:14:39.310Z,99969.78
2018-12-22T00:17:06.972Z,99961.12
2018-12-22T00:19:34.531Z,99956.25
2018-12-22T00:22:02.252Z,99963.56
2018-12-22T00:24:29.842Z,99957.86
2018-12-22T00:26:57.611Z,99964.91
2018-12-22T00:29:25.181Z,99958.16
2018-12-22T00:31:52.732Z,99956.81
2018-12-22T00:34:21.458Z,99956.52
2018-12-22T00:36:48.982Z,99958.65
2018-12-22T00:39:16.544Z,99967.08
2018-12-22T00:41:44.136Z,99973.00
2018-12-22T00:44:11.838Z,99967.78
2018-12-22T00:46:39.534Z,99967.03
2018-12-22T00:49:07.088Z,99972.43
2018-12-22T00:51:34.638Z,99973.78
2018-12-22T00:54:02.310Z,99976.17
2018-12-22T00:56:29.890Z,99973.18
2018-12-22T00:58:57.502Z,99971.23
2018-12-22T01:01:25.212Z,99973.92
2018-12-22T01:03:53.059Z,99979.63
2018-12-22T01:06:20.460Z,99978.27
2018-12-22T01:08:48.065Z,99973.33
2018-12-22T01:11:15.739Z,99975.50
2018-12-22T01:13:43.291Z,99968.76
2018-12-22T01:16:10.849Z,99974.45
2018-12-22T01:18:38.533Z,99973.62
2018-12-22T01:21:06.381Z,99974.16
2018-12-22T01:23:34.045Z,99985.47
2018-12-22T01:26:01.751Z,99987.86
2018-12-22T01:28:29.367Z,100000.81
2018-12-22T01:30:57.135Z,100004.86
2018-12-22T01:33:24.693Z,100007.03
2018-12-22T01:35:52.255Z,100012.95
2018-12-22T01:38:20.021Z,100011.86
2018-12-22T01:40:47.489Z,100017.25
2018-12-22T01:43:15.238Z,100014.55
2018-12-22T01:45:42.902Z,100012.12
2018-12-22T01:48:11.495Z,100011.56
2018-12-22T01:50:39.052Z,100008.56
2018-12-22T01:53:06.606Z,100001.82
2018-12-22T01:55:34.348Z,100011.86
2018-12-22T01:58:01.930Z,100002.95
2018-12-22T02:00:29.452Z,100010.52
2018-12-22T02:02:57.151Z,100009.39
2018-12-22T02:05:24.795Z,100008.86
2018-12-22T02:07:52.453Z,100009.61
2018-12-22T02:10:20.094Z,100003.17
2018-12-22T02:12:47.812Z,99994.48
2018-12-22T02:15:15.461Z,99988.27
2018-12-22T02:17:43.210Z,99986.39
2018-12-22T02:20:10.891Z,99986.61
2018-12-22T02:22:38.430Z,99980.17
2018-12-22T02:25:06.028Z,99981.59
2018-12-22T02:27:33.764Z,99970.73
2018-12-22T02:30:01.413Z,99968.56
2018-12-22T02:32:28.871Z,99976.13
2018-12-22T02:34:56.571Z,99966.16
2018-12-22T02:37:24.404Z,99978.53
2018-12-22T02:39:52.063Z,99977.41
2018-12-22T02:42:19.645Z,99970.44
2018-12-22T02:44:47.197Z,99967.14
2018-12-22T02:47:14.822Z,99965.56
2018-12-22T02:49:42.465Z,99967.97
2018-12-22T02:52:10.192Z,99965.49
2018-12-22T02:54:37.750Z,99957.66
2018-12-22T02:57:05.288Z,99967.39
2018-12-22T02:59:32.965Z,99966.84
2018-12-22T03:02:00.586Z,99971.14
2018-12-22T03:04:28.111Z,99967.39
2018-12-22T03:06:55.732Z,99965.11
2018-12-22T03:09:23.285Z,99969.98
2018-12-22T03:11:50.927Z,99970.20
2018-12-22T03:14:18.510Z,99965.11
2018-12-22T03:16:46.133Z,99963.47
2018-12-22T03:19:13.960Z,99956.73
2018-12-22T03:21:41.622Z,99958.70
2018-12-22T03:24:09.145Z,99972.08
2018-12-22T03:26:36.828Z,99968.78
2018-12-22T03:29:04.504Z,99972.59
2018-12-22T03:31:32.148Z,99975.30
2018-12-22T03:33:59.693Z,99977.39
2018-12-22T03:36:27.344Z,99964.73
2018-12-22T03:38:54.950Z,99961.73
2018-12-22T03:41:22.566Z,99963.09
2018-12-22T03:43:50.156Z,99964.96
2018-12-22T03:46:17.932Z,99962.00
2018-12-22T03:48:45.351Z,99953.61
2018-12-22T03:51:13.013Z,99953.61
2018-12-22T03:53:40.668Z,99953.61
2018-12-22T03:56:08.264Z,99949.79
2018-12-22T03:58:35.896Z,99951.66
2018-12-22T04:01:03.561Z,99962.44
2018-12-22T04:03:31.009Z,99951.14
2018-12-22T19:23:09.956Z,100970.55
2018-12-22T19:25:37.618Z,100978.88
2018-12-22T19:28:05.562Z,100975.90
2018-12-22T19:30:33.008Z,100981.46
2018-12-22T19:33:00.927Z,100992.65
2018-12-22T19:35:28.441Z,100995.46
2018-12-22T19:37:56.431Z,100994.95
2018-12-22T19:40:24.011Z,101003.31
2018-12-22T19:42:52.880Z,101003.92
2018-12-22T19:45:20.331Z,100997.14
2018-12-22T19:47:48.582Z,101006.65
2018-12-22T19:50:16.610Z,100998.22
2018-12-22T19:52:44.871Z,101003.92
2018-12-22T19:55:12.296Z,101008.20
2018-12-22T19:57:39.836Z,101014.01
2018-12-22T20:00:08.588Z,101009.70
2018-12-22T20:02:36.289Z,101010.98
2018-12-22T20:05:05.043Z,101018.32
2018-12-22T20:07:32.586Z,101019.41
2018-12-22T20:10:00.649Z,101024.66
2018-12-22T20:12:28.153Z,101025.73
2018-12-22T20:14:56.220Z,101037.77
2018-12-22T20:17:23.741Z,101032.71
2018-12-22T20:19:51.825Z,101029.48
2018-12-22T20:22:19.369Z,101034.42
2018-12-22T20:24:47.488Z,101035.42
2018-12-22T20:27:15.336Z,101030.02
2018-12-22T20:29:42.837Z,101029.71
2018-12-22T20:32:10.958Z,101020.56
2018-12-22T20:34:38.503Z,101015.44
2018-12-22T20:37:06.503Z,101023.53
2018-12-22T20:39:34.025Z,101025.33
2018-12-22T20:42:02.128Z,101030.73
2018-12-22T20:44:29.679Z,101030.91
2018-12-22T20:46:57.801Z,101021.41
2018-12-22T20:49:26.479Z,101031.09
2018-12-22T20:51:54.960Z,101025.20
2018-12-22T20:54:23.447Z,101035.73
2018-12-22T20:56:52.148Z,101033.20
2018-12-22T20:59:19.710Z,101046.34
2018-12-22T21:01:47.940Z,101056.26
2018-12-22T21:04:19.828Z,101047.64
2018-12-22T21:06:45.634Z,101053.50
2018-12-22T21:09:13.655Z,101052.66
2018-12-22T21:11:41.197Z,101052.78
2018-12-22T21:14:09.283Z,101052.77
2018-12-22T21:16:36.845Z,101054.04
2018-12-22T21:19:04.829Z,101056.84
2018-12-22T21:21:32.332Z,101062.62
2018-12-22T21:24:00.512Z,101069.45
2018-12-22T21:26:28.673Z,101056.98
2018-12-22T21:28:56.805Z,101069.78
2018-12-22T21:31:24.560Z,101062.08
2018-12-22T21:33:52.628Z,101070.50
2018-12-22T21:36:22.118Z,101079.70
2018-12-22T21:38:50.476Z,101079.70
2018-12-22T21:41:18.218Z,101088.52
2018-12-22T21:43:45.850Z,101084.87
2018-12-22T21:46:14.015Z,101084.78
2018-12-22T21:48:41.748Z,101078.41
2018-12-22T21:51:09.401Z,101075.88
2018-12-22T21:53:37.554Z,101081.09
2018-12-22T21:56:05.955Z,101085.21
2018-12-22T21:58:33.452Z,101096.97
2018-12-22T22:01:01.662Z,101090.20
2018-12-22T22:03:29.493Z,101086.74
2018-12-22T22:05:57.692Z,101091.28
2018-12-22T22:08:25.582Z,101095.58
2018-12-22T22:10:53.707Z,101102.14
2018-12-22T22:13:22.248Z,101101.03
2018-12-22T22:15:49.915Z,101098.77
2018-12-22T22:18:18.012Z,101103.83
2018-12-22T22:20:45.693Z,101114.05
2018-12-22T22:23:18.808Z,101118.63
2018-12-22T22:25:43.222Z,101116.34
2018-12-22T22:28:11.023Z,101125.13
2018-12-22T22:30:38.752Z,101126.19
2018-12-22T22:33:06.266Z,101131.51
2018-12-22T22:35:35.511Z,101126.72
2018-12-22T22:38:03.479Z,101125.52
2018-12-22T22:40:31.412Z,101135.14
2018-12-22T22:42:58.965Z,101145.01
2018-12-22T22:45:27.659Z,101135.74
2018-12-22T22:47:55.163Z,101146.91
2018-12-22T22:50:23.226Z,101143.75
2018-12-22T22:52:50.688Z,101150.28
2018-12-22T22:55:18.728Z,101156.89
2018-12-22T22:57:46.412Z,101162.89
2018-12-22T23:00:18.071Z,101156.54
2018-12-22T23:02:45.782Z,101158.92
2018-12-22T23:05:13.351Z,101155.58
2018-12-22T23:07:41.003Z,101156.15
2018-12-22T23:10:09.283Z,101161.33
2018-12-22T23:12:36.824Z,101160.60
2018-12-22T23:15:05.376Z,101162.05
2018-12-22T23:17:33.013Z,101166.63
2018-12-22T23:20:00.630Z,101166.59
2018-12-22T23:22:28.165Z,101170.20
2018-12-22T23:24:56.275Z,101168.88
2018-12-22T23:27:23.906Z,101172.50
2018-12-22T23:29:51.422Z,101173.67
2018-12-22T23:32:18.969Z,101177.28
2018-12-22T23:34:46.419Z,101174.03
2018-12-22T23:37:13.885Z,101174.00
2018-12-22T23:39:41.425Z,101181.61
2018-12-22T23:42:09.141Z,101183.06
2018-12-22T23:44:36.645Z,101193.53
2018-12-22T23:47:04.246Z,101205.81
2018-12-22T23:49:31.783Z,101192.33
2018-12-22T23:51:59.425Z,101194.65
2018-12-22T23:54:27.146Z,101197.27
2018-12-22T23:56:54.534Z,101189.20
2018-12-22T23:59:22.210Z,101188.23
